createdAt,value
2017-05-13T00:02:03.221Z,13.8
2017-05-13T00:07:03.095Z,13.8
2017-05-13T00:12:02.876Z,13.7
2017-05-13T00:17:03.670Z,13.6
2017-05-13T00:22:02.952Z,13.5
2017-05-13T00:27:02.958Z,13.4
2017-05-13T00:32:03.597Z,13.3
2017-05-13T00:37:03.296Z,13.2
2017-05-13T00:42:03.073Z,13.1
2017-05-13T00:47:02.903Z,13.0
2017-05-13T00:52:03.531Z,13.0
2017-05-13T00:57:03.118Z,12.9
2017-05-13T01:02:02.977Z,12.9
2017-05-13T01:07:02.925Z,12.9
2017-05-13T01:12:03.629Z,12.8
2017-05-13T01:17:03.689Z,12.9
2017-05-13T01:22:03.132Z,12.9
2017-05-13T01:27:03.094Z,12.9
2017-05-13T01:32:02.967Z,12.8
2017-05-13T01:37:03.624Z,12.9
2017-05-13T01:42:03.568Z,12.9
2017-05-13T01:47:03.464Z,13.1
2017-05-13T01:52:03.113Z,13.0
2017-05-13T01:57:02.946Z,13.1
2017-05-13T02:02:03.893Z,13.0
2017-05-13T02:07:03.385Z,13.0
2017-05-13T02:12:03.234Z,13.0
2017-05-13T02:17:03.043Z,12.8
2017-05-13T02:22:03.421Z,12.7
2017-05-13T02:27:03.226Z,12.8
2017-05-13T02:32:03.162Z,12.8
2017-05-13T02:37:03.528Z,12.9
2017-05-13T02:42:02.855Z,12.9
2017-05-13T02:47:03.063Z,12.9
2017-05-13T02:52:03.258Z,12.9
2017-05-13T02:57:03.540Z,12.9
2017-05-13T03:02:03.225Z,12.8
2017-05-13T03:07:03.357Z,12.8
2017-05-13T03:12:02.839Z,12.6
2017-05-13T03:17:14.387Z,12.3
2017-05-13T03:22:02.744Z,12.3
2017-05-13T03:27:03.195Z,12.2
2017-05-13T03:32:14.032Z,12.2
2017-05-13T03:37:03.401Z,12.0
2017-05-13T03:42:03.274Z,12.0
2017-05-13T03:47:13.318Z,11.9
2017-05-13T03:52:02.890Z,12.0
2017-05-13T03:57:03.297Z,12.0
2017-05-13T04:02:13.080Z,12.0
2017-05-13T04:07:03.268Z,12.0
2017-05-13T04:12:02.782Z,12.0
2017-05-13T04:17:17.948Z,12.1
2017-05-13T04:22:02.678Z,12.1
2017-05-13T04:27:03.123Z,12.4
2017-05-13T04:32:13.770Z,12.4
2017-05-13T04:37:02.763Z,12.7
2017-05-13T04:42:03.121Z,12.7
2017-05-13T04:47:23.227Z,12.9
2017-05-13T04:52:02.998Z,12.5
2017-05-13T04:57:03.387Z,12.5
2017-05-13T05:02:12.846Z,12.4
2017-05-13T05:07:03.091Z,12.3
2017-05-13T05:12:03.140Z,12.4
2017-05-13T05:17:13.901Z,12.5
2017-05-13T05:22:03.484Z,13.0
2017-05-13T05:27:02.976Z,13.2
2017-05-13T05:32:13.889Z,13.2
2017-05-13T05:37:03.225Z,14.0
2017-05-13T05:42:03.498Z,14.5
2017-05-13T05:47:13.534Z,14.8
2017-05-13T05:52:02.792Z,14.8
2017-05-13T05:57:03.189Z,15.3
2017-05-13T06:02:14.043Z,15.6
2017-05-13T06:07:02.833Z,15.6
2017-05-13T06:12:03.379Z,15.9
2017-05-13T06:17:13.417Z,16.5
2017-05-13T06:22:03.062Z,16.4
2017-05-13T06:27:03.425Z,17.1
2017-05-13T06:32:13.430Z,17.1
2017-05-13T06:37:03.529Z,17.5
2017-05-13T06:42:02.959Z,17.8
2017-05-13T06:47:17.859Z,17.9
2017-05-13T06:52:03.082Z,18.3
2017-05-13T06:57:03.393Z,18.2
2017-05-13T07:02:12.984Z,19.3
2017-05-13T07:07:02.824Z,19.7
2017-05-13T07:12:02.825Z,19.6
2017-05-13T07:17:17.828Z,20.1
2017-05-13T07:22:03.561Z,20.0
2017-05-13T07:27:02.927Z,20.0
2017-05-13T07:32:17.647Z,20.4
2017-05-13T07:37:03.428Z,20.4
2017-05-13T07:42:02.871Z,19.9
2017-05-13T07:47:13.622Z,19.6
2017-05-13T07:52:02.702Z,19.6
2017-05-13T07:57:03.139Z,19.5
2017-05-13T08:02:17.629Z,19.7
2017-05-13T08:07:03.573Z,19.6
2017-05-13T08:12:03.261Z,20.0
2017-05-13T08:17:17.559Z,20.5
2017-05-13T08:22:03.067Z,21.3
2017-05-13T08:27:03.458Z,22.7
2017-05-13T08:32:13.138Z,22.6
2017-05-13T08:37:02.853Z,23.2
2017-05-13T08:42:03.137Z,23.2
2017-05-13T08:47:17.307Z,22.7
2017-05-13T08:52:03.304Z,22.6
2017-05-13T08:57:02.702Z,23.2
2017-05-13T09:02:13.549Z,23.4
2017-05-13T09:07:03.148Z,23.8
2017-05-13T09:12:02.704Z,23.7
2017-05-13T09:17:13.636Z,24.1
2017-05-13T09:22:03.656Z,24.5
2017-05-13T09:27:03.263Z,24.0
2017-05-13T09:32:13.876Z,24.2
2017-05-13T09:37:03.388Z,24.1
2017-05-13T09:42:02.843Z,24.3
2017-05-13T09:47:13.098Z,25.4
2017-05-13T09:52:03.036Z,25.4
2017-05-13T09:57:03.362Z,25.7
2017-05-13T10:02:13.123Z,25.3
2017-05-13T10:07:03.165Z,25.3
2017-05-13T10:12:02.753Z,25.3
2017-05-13T10:17:13.771Z,25.9
2017-05-13T10:22:03.356Z,26.5
2017-05-13T10:27:02.735Z,26.4
2017-05-13T10:32:13.446Z,26.9
2017-05-13T10:37:03.228Z,26.9
2017-05-13T10:42:03.533Z,26.9
2017-05-13T10:47:13.389Z,26.1
2017-05-13T10:52:03.261Z,25.7
2017-05-13T10:57:03.568Z,25.7
2017-05-13T11:02:17.436Z,26.6
2017-05-13T11:07:03.382Z,25.4
2017-05-13T11:12:02.885Z,25.4
2017-05-13T11:17:06.018Z,25.2
2017-05-13T11:22:02.894Z,26.1
2017-05-13T11:27:03.265Z,26.2
2017-05-13T11:32:12.977Z,27.0
2017-05-13T11:37:02.753Z,27.5
2017-05-13T11:42:03.212Z,27.5
2017-05-13T11:47:13.040Z,27.5
2017-05-13T11:52:03.469Z,27.3
2017-05-13T11:57:03.065Z,27.3
2017-05-13T12:02:13.769Z,27.8
2017-05-13T12:07:02.778Z,28.4
2017-05-13T12:12:03.401Z,28.0
2017-05-13T12:17:13.366Z,28.5
2017-05-13T12:22:03.344Z,28.4
2017-05-13T12:27:03.636Z,29.2
2017-05-13T12:32:22.873Z,29.0
2017-05-13T12:37:03.476Z,28.4
2017-05-13T12:42:02.791Z,28.1
2017-05-13T12:47:16.870Z,27.7
2017-05-13T12:52:03.513Z,27.5
2017-05-13T12:57:03.253Z,27.5
2017-05-13T13:07:03.339Z,26.8
2017-05-13T13:12:02.929Z,26.8
2017-05-13T13:17:13.733Z,26.8
2017-05-13T13:22:03.535Z,26.8
2017-05-13T13:27:03.267Z,26.2
2017-05-13T13:32:13.855Z,26.2
2017-05-13T13:37:02.797Z,26.0
2017-05-13T13:42:03.196Z,26.0
2017-05-13T13:47:23.154Z,25.8
2017-05-13T13:52:03.416Z,25.7
2017-05-13T13:57:02.851Z,25.7
2017-05-13T14:02:12.826Z,25.6
2017-05-13T14:07:03.420Z,25.1
2017-05-13T14:12:03.068Z,24.6
2017-05-13T14:17:13.714Z,25.1
2017-05-13T14:22:03.169Z,25.0
2017-05-13T14:27:03.498Z,25.9
2017-05-13T14:32:17.016Z,27.5
2017-05-13T14:37:03.487Z,31.2
2017-05-13T14:42:03.063Z,33.0
2017-05-13T14:47:13.808Z,33.7
2017-05-13T14:52:03.442Z,33.6
2017-05-13T14:57:02.787Z,34.4
2017-05-13T15:02:13.542Z,36.2
2017-05-13T15:07:02.938Z,37.1
2017-05-13T15:12:03.482Z,37.0
2017-05-13T15:17:17.674Z,30.9
2017-05-13T15:22:02.781Z,30.8
2017-05-13T15:27:03.162Z,29.5
2017-05-13T15:37:02.890Z,28.4
2017-05-13T15:42:03.231Z,28.4
2017-05-13T15:47:23.620Z,32.6
2017-05-13T15:52:03.347Z,35.0
2017-05-13T15:57:02.847Z,31.6
2017-05-13T16:02:13.496Z,29.4
2017-05-13T16:07:03.323Z,28.9
2017-05-13T16:12:02.787Z,27.5
2017-05-13T16:17:23.313Z,27.5
2017-05-13T16:22:03.266Z,27.1
2017-05-13T16:27:03.556Z,26.6
2017-05-13T16:37:03.450Z,24.9
2017-05-13T16:42:02.863Z,23.7
2017-05-13T16:47:23.276Z,22.8
2017-05-13T16:52:02.768Z,22.3
2017-05-13T16:57:03.183Z,21.9
2017-05-13T17:02:13.879Z,21.5
2017-05-13T17:07:02.686Z,20.7
2017-05-13T17:12:02.833Z,20.7
2017-05-13T17:17:23.308Z,20.9
2017-05-13T17:22:02.741Z,20.8
2017-05-13T17:27:03.159Z,20.7
2017-05-13T17:32:13.739Z,20.2
2017-05-13T17:37:03.153Z,20.1
2017-05-13T17:42:03.438Z,19.8
2017-05-13T17:52:03.372Z,19.0
2017-05-13T17:57:02.974Z,19.0
2017-05-13T18:02:13.235Z,18.8
2017-05-13T18:07:03.018Z,18.6
2017-05-13T18:12:02.795Z,18.4
2017-05-13T18:17:13.902Z,18.1
2017-05-13T18:22:03.031Z,17.8
2017-05-13T18:27:03.466Z,17.7
2017-05-13T18:32:13.706Z,17.6
2017-05-13T18:37:03.615Z,17.6
2017-05-13T18:42:02.892Z,17.6
2017-05-13T18:47:13.876Z,17.4
2017-05-13T18:52:03.429Z,17.1
2017-05-13T18:57:03.340Z,17.1
2017-05-13T19:02:12.980Z,17.1
2017-05-13T19:07:03.199Z,17.0
2017-05-13T19:12:03.104Z,17.0
2017-05-13T19:17:13.828Z,16.8
2017-05-13T19:22:03.083Z,16.8
2017-05-13T19:27:03.369Z,16.6
2017-05-13T19:32:10.641Z,16.5
2017-05-13T19:37:03.132Z,16.4
2017-05-13T19:42:03.371Z,16.1
2017-05-13T19:47:05.509Z,16.0
2017-05-13T19:52:03.049Z,16.0
2017-05-13T19:57:03.332Z,15.9
2017-05-13T20:02:03.647Z,15.8
2017-05-13T20:07:03.011Z,15.6
2017-05-13T20:12:03.405Z,15.6
2017-05-13T20:17:03.814Z,15.4
2017-05-13T20:22:03.199Z,15.4
2017-05-13T20:27:03.408Z,15.4
2017-05-13T20:32:03.698Z,15.3
2017-05-13T20:37:03.115Z,15.3
2017-05-13T20:42:03.262Z,15.3
2017-05-13T20:47:03.596Z,15.3
2017-05-13T20:52:02.940Z,15.4
2017-05-13T20:57:03.159Z,15.5
2017-05-13T21:02:03.565Z,15.4
2017-05-13T21:07:02.973Z,15.6
2017-05-13T21:12:03.309Z,15.5
2017-05-13T21:17:03.634Z,15.4
2017-05-13T21:22:02.990Z,15.3
2017-05-13T21:27:03.714Z,15.3
2017-05-13T21:32:03.397Z,15.3
2017-05-13T21:37:02.748Z,15.4
2017-05-13T21:42:03.024Z,15.5
2017-05-13T21:47:03.592Z,15.5
2017-05-13T21:52:02.674Z,15.4
2017-05-13T21:57:03.014Z,15.4
2017-05-13T22:02:03.778Z,15.4
2017-05-13T22:07:02.972Z,15.5
2017-05-13T22:12:02.820Z,15.4
2017-05-13T22:22:03.655Z,15.3
2017-05-13T22:27:03.394Z,15.3
2017-05-13T22:32:03.481Z,15.2
2017-05-13T22:37:03.384Z,15.1
2017-05-13T22:42:03.443Z,15.1
2017-05-13T22:47:03.574Z,15.0
2017-05-13T22:52:02.703Z,15.0
2017-05-13T22:57:02.753Z,15.1
2017-05-13T23:02:02.897Z,15.0
2017-05-13T23:07:03.303Z,15.0
2017-05-13T23:12:02.793Z,14.9
2017-05-13T23:17:03.118Z,14.8
2017-05-13T23:22:03.110Z,14.9
2017-05-13T23:27:03.409Z,14.9
2017-05-13T23:32:03.674Z,14.9
2017-05-13T23:37:03.081Z,15.0
2017-05-13T23:42:03.224Z,15.0
2017-05-13T23:47:03.108Z,15.1
2017-05-13T23:52:03.281Z,15.0
2017-05-13T23:57:02.980Z,15.1
